createdAt,value
2018-09-25T00:02:23.561Z,12.30
2018-09-25T00:05:33.076Z,12.30
2018-09-25T00:08:42.519Z,12.40
2018-09-25T00:11:52.097Z,12.40
2018-09-25T00:15:01.643Z,12.30
2018-09-25T00:18:10.963Z,12.30
2018-09-25T00:21:20.365Z,12.30
2018-09-25T00:24:29.641Z,12.30
2018-09-25T00:27:39.100Z,12.30
2018-09-25T00:30:48.713Z,12.30
2018-09-25T00:33:58.194Z,12.20
2018-09-25T00:37:07.718Z,12.10
2018-09-25T00:40:17.065Z,12.10
2018-09-25T00:43:26.506Z,12.00
2018-09-25T00:46:35.803Z,12.00
2018-09-25T00:49:45.439Z,12.00
2018-09-25T00:52:54.844Z,12.00
2018-09-25T00:56:04.620Z,11.90
2018-09-25T00:59:13.993Z,11.90
2018-09-25T01:02:23.464Z,11.90
2018-09-25T01:05:33.030Z,11.90
2018-09-25T01:08:42.655Z,11.90
2018-09-25T01:11:51.971Z,11.80
2018-09-25T01:15:01.321Z,11.70
2018-09-25T01:18:10.682Z,11.80
2018-09-25T01:21:20.174Z,11.80
2018-09-25T01:24:29.526Z,11.80
2018-09-25T01:27:38.728Z,11.80
2018-09-25T01:30:47.810Z,11.80
2018-09-25T01:33:57.323Z,11.80
2018-09-25T01:37:06.468Z,11.70
2018-09-25T01:40:15.628Z,11.80
2018-09-25T01:43:24.662Z,11.70
2018-09-25T01:46:33.932Z,11.70
2018-09-25T01:49:43.280Z,11.60
2018-09-25T01:52:52.736Z,11.50
2018-09-25T01:56:02.015Z,11.60
2018-09-25T01:59:11.552Z,11.50
2018-09-25T02:02:20.796Z,11.50
2018-09-25T02:05:30.187Z,11.40
2018-09-25T02:08:39.533Z,11.50
2018-09-25T02:11:48.895Z,11.50
2018-09-25T02:14:58.303Z,11.50
2018-09-25T02:18:07.776Z,11.50
2018-09-25T02:21:17.029Z,11.40
2018-09-25T02:24:26.569Z,11.30
2018-09-25T02:27:35.982Z,11.20
2018-09-25T02:30:45.269Z,11.10
2018-09-25T02:33:54.578Z,11.10
2018-09-25T02:37:04.513Z,11.10
2018-09-25T02:40:13.905Z,11.00
2018-09-25T02:43:23.150Z,11.00
2018-09-25T02:46:32.408Z,11.00
2018-09-25T02:49:41.579Z,11.10
2018-09-25T02:52:51.093Z,11.10
2018-09-25T02:56:00.614Z,11.10
2018-09-25T02:59:09.955Z,11.10
2018-09-25T03:02:19.626Z,11.10
2018-09-25T03:05:29.471Z,11.20
2018-09-25T03:08:38.931Z,11.20
2018-09-25T03:11:48.362Z,11.10
2018-09-25T03:14:57.794Z,11.00
2018-09-25T03:18:07.234Z,11.00
2018-09-25T03:21:16.552Z,11.10
2018-09-25T03:24:26.740Z,11.10
2018-09-25T03:27:36.001Z,11.20
2018-09-25T03:30:45.275Z,11.10
2018-09-25T03:33:54.636Z,11.00
2018-09-25T03:37:04.054Z,11.00
2018-09-25T03:40:13.522Z,10.90
2018-09-25T03:43:22.819Z,10.80
2018-09-25T03:46:32.187Z,10.90
2018-09-25T03:49:41.570Z,10.90
2018-09-25T03:52:51.276Z,10.90
2018-09-25T03:56:00.905Z,10.90
2018-09-25T03:59:10.269Z,11.00
2018-09-25T04:02:19.593Z,11.10
2018-09-25T04:05:28.973Z,11.00
2018-09-25T04:08:38.185Z,11.10
2018-09-25T04:11:47.689Z,11.20
2018-09-25T04:14:57.173Z,11.10
2018-09-25T04:18:06.727Z,11.10
2018-09-25T04:21:16.039Z,11.10
2018-09-25T04:24:25.540Z,11.10
2018-09-25T04:27:34.982Z,11.20
2018-09-25T04:30:44.313Z,11.10
2018-09-25T04:33:53.627Z,11.20
2018-09-25T04:37:03.186Z,11.20
2018-09-25T04:40:12.461Z,11.30
2018-09-25T04:43:22.111Z,11.30
2018-09-25T04:46:31.617Z,11.40
2018-09-25T04:49:40.995Z,11.40
2018-09-25T04:52:50.483Z,11.20
2018-09-25T04:56:00.123Z,11.10
2018-09-25T04:59:09.508Z,11.10
2018-09-25T05:02:19.134Z,11.10
2018-09-25T05:05:28.253Z,11.20
2018-09-25T05:08:37.833Z,11.30
2018-09-25T05:11:47.381Z,11.40
2018-09-25T05:14:56.623Z,11.50
2018-09-25T05:18:06.091Z,11.50
2018-09-25T05:21:15.519Z,11.60
2018-09-25T05:24:25.108Z,11.60
2018-09-25T05:27:34.410Z,11.60
2018-09-25T05:30:43.656Z,11.70
2018-09-25T05:33:52.950Z,11.70
2018-09-25T05:37:02.330Z,11.80
2018-09-25T05:40:11.756Z,11.80
2018-09-25T05:43:21.045Z,11.80
2018-09-25T05:46:30.418Z,11.80
2018-09-25T05:49:40.655Z,11.90
2018-09-25T05:52:50.156Z,11.90
2018-09-25T05:55:59.484Z,11.90
2018-09-25T05:59:09.042Z,11.90
2018-09-25T06:02:18.554Z,12.00
2018-09-25T06:05:27.893Z,12.10
2018-09-25T06:08:37.411Z,12.20
2018-09-25T06:11:46.698Z,12.10
2018-09-25T06:14:56.332Z,12.20
2018-09-25T06:18:05.977Z,12.20
2018-09-25T06:21:15.336Z,12.30
2018-09-25T06:24:24.652Z,12.40
2018-09-25T06:27:34.274Z,12.50
2018-09-25T06:30:43.926Z,12.60
2018-09-25T06:33:53.187Z,12.70
2018-09-25T06:37:02.730Z,12.90
2018-09-25T06:40:12.000Z,13.00
2018-09-25T06:43:21.410Z,13.00
2018-09-25T06:46:30.992Z,13.00
2018-09-25T06:49:40.413Z,12.90
2018-09-25T06:52:49.922Z,13.00
2018-09-25T06:55:59.422Z,13.20
2018-09-25T06:59:08.964Z,13.40
2018-09-25T07:02:18.310Z,13.40
2018-09-25T07:05:28.003Z,13.60
2018-09-25T07:08:37.337Z,13.70
2018-09-25T07:11:46.742Z,13.90
2018-09-25T07:14:56.152Z,14.00
2018-09-25T07:18:05.702Z,14.00
2018-09-25T07:21:15.332Z,14.20
2018-09-25T07:24:24.826Z,14.20
2018-09-25T07:27:34.359Z,14.30
2018-09-25T07:30:43.540Z,14.40
2018-09-25T07:33:52.938Z,15.00
2018-09-25T07:37:02.732Z,15.40
2018-09-25T07:40:12.047Z,15.80
2018-09-25T07:43:21.503Z,15.80
2018-09-25T07:46:30.836Z,16.00
2018-09-25T07:49:40.494Z,15.80
2018-09-25T07:52:49.986Z,15.60
2018-09-25T07:55:59.177Z,15.60
2018-09-25T07:59:08.493Z,15.70
2018-09-25T08:02:18.028Z,17.10
2018-09-25T08:05:27.468Z,17.40
2018-09-25T08:08:36.897Z,17.40
2018-09-25T08:11:46.645Z,17.40
2018-09-25T08:14:56.149Z,17.50
2018-09-25T08:18:05.501Z,17.40
2018-09-25T08:21:14.735Z,17.20
2018-09-25T08:24:24.389Z,16.90
2018-09-25T08:27:33.574Z,17.20
2018-09-25T08:30:42.851Z,21.10
2018-09-25T08:33:52.216Z,23.20
2018-09-25T08:37:01.771Z,22.70
2018-09-25T08:40:11.319Z,22.10
2018-09-25T08:43:20.786Z,23.20
2018-09-25T08:46:30.208Z,28.10
2018-09-25T08:49:39.741Z,31.20
2018-09-25T08:52:49.300Z,30.60
2018-09-25T08:55:58.841Z,33.80
2018-09-25T08:59:08.754Z,34.50
2018-09-25T09:02:18.430Z,35.80
2018-09-25T09:05:28.612Z,34.80
2018-09-25T09:08:38.038Z,37.20
2018-09-25T09:11:47.683Z,37.60
2018-09-25T09:14:57.245Z,36.70
2018-09-25T09:18:06.565Z,36.70
2018-09-25T09:21:15.874Z,35.90
2018-09-25T09:24:25.272Z,34.80
2018-09-25T09:27:34.857Z,32.50
2018-09-25T09:30:45.571Z,31.50
2018-09-25T09:33:55.080Z,33.60
2018-09-25T09:37:04.760Z,36.20
2018-09-25T09:40:14.054Z,38.70
2018-09-25T09:43:23.304Z,41.50
2018-09-25T09:46:32.809Z,41.90
2018-09-25T09:49:42.189Z,41.20
2018-09-25T09:52:51.440Z,42.20
2018-09-25T09:56:00.373Z,43.60
2018-09-25T09:59:09.224Z,44.00
2018-09-25T10:02:18.019Z,43.50
2018-09-25T10:05:26.929Z,43.90
2018-09-25T10:08:36.282Z,44.70
2018-09-25T10:11:45.760Z,45.20
2018-09-25T10:14:55.163Z,46.40
2018-09-25T10:18:04.670Z,47.20
2018-09-25T10:21:14.230Z,46.10
2018-09-25T10:24:23.717Z,44.90
2018-09-25T10:27:33.173Z,41.50
2018-09-25T10:30:42.674Z,40.30
2018-09-25T10:33:52.011Z,38.50
2018-09-25T10:37:01.343Z,40.40
2018-09-25T10:40:10.856Z,42.30
2018-09-25T10:43:20.506Z,40.00
2018-09-25T10:46:29.937Z,40.30
2018-09-25T10:49:39.493Z,41.90
2018-09-25T10:52:48.824Z,42.70
2018-09-25T10:55:58.714Z,44.10
2018-09-25T10:59:08.099Z,45.20
2018-09-25T11:02:17.332Z,44.90
2018-09-25T11:05:26.668Z,44.40
2018-09-25T11:08:36.267Z,43.90
2018-09-25T11:11:45.923Z,43.80
2018-09-25T11:14:55.561Z,43.60
2018-09-25T11:18:04.931Z,43.70
2018-09-25T11:21:14.346Z,43.10
2018-09-25T11:24:23.662Z,38.50
2018-09-25T11:27:33.071Z,36.50
2018-09-25T11:30:42.629Z,34.90
2018-09-25T11:33:52.104Z,32.80
2018-09-25T11:37:01.507Z,30.60
2018-09-25T11:40:10.815Z,28.80
2018-09-25T11:43:20.135Z,30.40
2018-09-25T11:46:29.630Z,34.00
2018-09-25T11:49:38.579Z,37.80
2018-09-25T11:52:47.606Z,39.90
2018-09-25T11:55:56.869Z,40.70
2018-09-25T11:59:05.824Z,40.10
2018-09-25T12:02:15.003Z,39.20
2018-09-25T12:05:24.236Z,37.20
2018-09-25T12:08:33.460Z,36.90
2018-09-25T12:11:42.959Z,39.20
2018-09-25T12:14:52.255Z,40.90
2018-09-25T12:18:01.269Z,42.60
2018-09-25T12:21:10.563Z,43.30
2018-09-25T12:24:20.144Z,44.10
2018-09-25T12:27:29.284Z,44.40
2018-09-25T12:30:38.364Z,44.10
2018-09-25T12:33:47.867Z,44.60
2018-09-25T12:36:57.118Z,43.80
2018-09-25T12:40:06.135Z,43.10
2018-09-25T12:43:15.137Z,42.60
2018-09-25T12:46:24.393Z,43.30
2018-09-25T12:49:33.793Z,42.00
2018-09-25T12:52:43.218Z,39.70
2018-09-25T12:55:52.671Z,38.60
2018-09-25T12:59:01.879Z,38.50
2018-09-25T13:02:10.945Z,38.70
2018-09-25T13:05:20.415Z,40.10
2018-09-25T13:08:29.665Z,40.90
2018-09-25T13:11:38.949Z,40.00
2018-09-25T13:14:48.423Z,38.00
2018-09-25T13:17:57.841Z,38.80
2018-09-25T13:21:06.867Z,40.00
2018-09-25T13:24:16.454Z,39.70
2018-09-25T13:27:25.837Z,37.50
2018-09-25T13:30:35.176Z,35.10
2018-09-25T13:33:44.374Z,32.80
2018-09-25T13:36:53.739Z,30.50
2018-09-25T13:40:02.975Z,28.80
2018-09-25T13:43:11.993Z,27.50
2018-09-25T13:46:21.533Z,26.40
2018-09-25T13:49:30.822Z,25.10
2018-09-25T13:52:40.284Z,24.30
2018-09-25T13:55:49.812Z,23.40
2018-09-25T13:58:59.280Z,23.00
2018-09-25T14:02:09.154Z,22.60
2018-09-25T14:05:18.444Z,22.10
2018-09-25T14:08:27.929Z,21.60
2018-09-25T14:11:37.241Z,21.10
2018-09-25T14:14:46.436Z,20.80
2018-09-25T14:17:55.818Z,20.50
2018-09-25T14:21:05.471Z,20.10
2018-09-25T14:24:14.931Z,19.90
2018-09-25T14:27:24.400Z,19.50
2018-09-25T14:30:33.799Z,19.30
2018-09-25T14:33:43.946Z,19.00
2018-09-25T14:36:53.595Z,18.90
2018-09-25T14:40:02.957Z,18.60
2018-09-25T14:43:12.501Z,18.60
2018-09-25T14:46:21.605Z,18.60
2018-09-25T14:49:31.241Z,18.50
2018-09-25T14:52:40.237Z,18.40
2018-09-25T14:55:49.509Z,18.30
2018-09-25T14:58:58.983Z,18.20
2018-09-25T15:02:08.444Z,18.10
2018-09-25T15:05:17.922Z,18.20
2018-09-25T15:08:27.450Z,18.00
2018-09-25T15:11:36.846Z,18.00
2018-09-25T15:14:46.399Z,18.00
2018-09-25T15:17:55.375Z,18.10
2018-09-25T15:21:04.621Z,18.20
2018-09-25T15:24:13.563Z,18.30
2018-09-25T15:27:22.831Z,18.20
2018-09-25T15:30:32.187Z,18.10
2018-09-25T15:33:41.713Z,18.00
2018-09-25T15:36:50.968Z,17.90
2018-09-25T15:40:00.486Z,17.90
2018-09-25T15:43:10.068Z,17.90
2018-09-25T15:46:19.368Z,17.80
2018-09-25T15:49:28.846Z,17.70
2018-09-25T15:52:39.234Z,17.60
2018-09-25T15:55:48.777Z,17.60
2018-09-25T15:58:58.176Z,17.50
2018-09-25T16:02:07.369Z,17.40
2018-09-25T16:05:16.746Z,17.30
2018-09-25T16:08:25.956Z,17.30
2018-09-25T16:11:35.268Z,17.10
2018-09-25T16:14:44.549Z,17.00
2018-09-25T16:17:54.120Z,16.90
2018-09-25T16:21:03.632Z,16.80
2018-09-25T16:24:13.142Z,16.70
2018-09-25T16:27:22.645Z,16.70
2018-09-25T16:30:32.105Z,16.50
2018-09-25T16:33:41.525Z,16.40
2018-09-25T16:36:50.841Z,16.40
2018-09-25T16:40:00.321Z,16.30
2018-09-25T16:43:09.858Z,16.10
2018-09-25T16:46:19.224Z,16.00
2018-09-25T16:49:28.734Z,15.90
2018-09-25T16:52:38.064Z,15.80
2018-09-25T16:55:47.233Z,15.70
2018-09-25T16:58:56.522Z,15.60
2018-09-25T17:02:05.771Z,15.60
2018-09-25T17:05:15.288Z,15.40
2018-09-25T17:08:24.778Z,15.30
2018-09-25T17:11:34.263Z,15.20
2018-09-25T17:14:43.703Z,15.20
2018-09-25T17:17:53.090Z,15.10
2018-09-25T17:21:02.350Z,15.00
2018-09-25T17:24:11.900Z,14.90
2018-09-25T17:27:21.436Z,14.90
2018-09-25T17:30:30.730Z,14.80
2018-09-25T17:33:40.150Z,14.60
2018-09-25T17:36:49.609Z,14.50
2018-09-25T17:39:59.162Z,14.40
2018-09-25T17:43:08.699Z,14.40
2018-09-25T17:46:17.971Z,14.20
2018-09-25T17:49:26.961Z,14.10
2018-09-25T17:52:36.263Z,14.00
2018-09-25T17:55:45.599Z,13.90
2018-09-25T17:58:55.076Z,13.90
2018-09-25T18:02:04.406Z,13.80
2018-09-25T18:05:13.925Z,13.70
2018-09-25T18:08:23.679Z,13.70
2018-09-25T18:11:33.115Z,13.60
2018-09-25T18:14:42.598Z,13.50
2018-09-25T18:17:52.174Z,13.40
2018-09-25T18:21:01.562Z,13.30
2018-09-25T18:24:11.069Z,13.20
2018-09-25T18:27:20.492Z,13.20
2018-09-25T18:30:29.829Z,13.20
2018-09-25T18:33:39.170Z,13.20
2018-09-25T18:36:48.416Z,13.20
2018-09-25T18:39:57.822Z,13.10
2018-09-25T18:43:08.080Z,13.10
2018-09-25T18:46:17.599Z,13.00
2018-09-25T18:49:27.006Z,13.00
2018-09-25T18:52:36.206Z,13.00
2018-09-25T18:55:45.650Z,12.90
2018-09-25T18:58:55.169Z,12.90
2018-09-25T19:02:04.558Z,12.80
2018-09-25T19:05:15.804Z,12.80
2018-09-25T19:08:25.683Z,12.80
2018-09-25T19:11:38.963Z,12.80
2018-09-25T19:14:55.909Z,12.60
2018-09-25T19:18:05.399Z,12.60
2018-09-25T19:21:14.876Z,12.60
2018-09-25T19:24:24.876Z,12.50
2018-09-25T19:27:34.397Z,12.60
2018-09-25T19:30:43.718Z,12.50
2018-09-25T19:33:52.836Z,12.50
2018-09-25T19:37:02.221Z,12.40
2018-09-25T19:40:11.755Z,12.50
2018-09-25T19:43:21.371Z,12.40
2018-09-25T19:46:30.852Z,12.40
2018-09-25T19:49:40.124Z,12.30
2018-09-25T19:52:49.132Z,12.20
2018-09-25T19:55:58.588Z,12.20
2018-09-25T19:59:07.909Z,12.20
2018-09-25T20:02:17.111Z,12.00
2018-09-25T20:05:26.404Z,12.00
2018-09-25T20:08:35.618Z,12.00
2018-09-25T20:11:45.300Z,11.90
2018-09-25T20:14:54.665Z,11.90
2018-09-25T20:18:03.895Z,11.80
2018-09-25T20:21:13.380Z,11.80
2018-09-25T20:24:22.839Z,11.80
2018-09-25T20:27:32.236Z,11.70
2018-09-25T20:30:41.616Z,11.60
2018-09-25T20:33:50.966Z,11.60
2018-09-25T20:37:00.089Z,11.60
2018-09-25T20:40:09.777Z,11.60
2018-09-25T20:43:19.362Z,11.50
2018-09-25T20:46:28.931Z,11.40
2018-09-25T20:49:38.410Z,11.40
2018-09-25T20:52:47.787Z,11.30
2018-09-25T20:55:57.219Z,11.30
2018-09-25T20:59:06.815Z,11.20
2018-09-25T21:02:16.451Z,11.20
2018-09-25T21:05:26.224Z,11.10
2018-09-25T21:08:35.825Z,11.00
2018-09-25T21:11:45.108Z,11.00
2018-09-25T21:14:54.286Z,10.90
2018-09-25T21:18:03.774Z,10.80
2018-09-25T21:21:13.299Z,10.80
2018-09-25T21:24:22.844Z,10.70
2018-09-25T21:27:32.461Z,10.70
2018-09-25T21:30:41.946Z,10.70
2018-09-25T21:33:51.355Z,10.70
2018-09-25T21:37:01.017Z,10.60
2018-09-25T21:40:10.561Z,10.50
2018-09-25T21:43:20.032Z,10.50
2018-09-25T21:46:29.587Z,10.40
2018-09-25T21:49:38.830Z,10.40
2018-09-25T21:52:47.871Z,10.30
2018-09-25T21:55:57.251Z,10.30
2018-09-25T21:59:06.615Z,10.20
2018-09-25T22:02:16.991Z,10.20
2018-09-25T22:05:26.202Z,10.20
2018-09-25T22:08:35.492Z,10.10
2018-09-25T22:11:44.850Z,10.00
2018-09-25T22:14:54.230Z,9.90
2018-09-25T22:18:03.558Z,9.90
2018-09-25T22:21:12.981Z,9.80
2018-09-25T22:24:22.159Z,9.70
2018-09-25T22:27:31.559Z,9.60
2018-09-25T22:30:40.532Z,9.50
2018-09-25T22:33:51.137Z,9.40
2018-09-25T22:37:00.309Z,9.30
2018-09-25T22:40:09.533Z,9.20
2018-09-25T22:43:19.648Z,9.30
2018-09-25T22:46:29.046Z,9.30
2018-09-25T22:49:38.057Z,9.30
2018-09-25T22:52:48.064Z,9.30
2018-09-25T22:55:57.441Z,9.30
2018-09-25T22:59:06.888Z,9.20
2018-09-25T23:02:16.940Z,9.20
2018-09-25T23:05:26.377Z,9.20
2018-09-25T23:08:36.171Z,9.20
2018-09-25T23:11:45.309Z,9.20
2018-09-25T23:14:54.601Z,9.10
2018-09-25T23:18:03.608Z,9.10
2018-09-25T23:21:12.996Z,9.10
2018-09-25T23:24:22.576Z,9.10
2018-09-25T23:27:32.383Z,9.00
2018-09-25T23:30:41.323Z,9.00
2018-09-25T23:33:51.311Z,9.00
2018-09-25T23:37:00.538Z,9.00
2018-09-25T23:40:11.570Z,8.90
2018-09-25T23:43:22.790Z,8.90
2018-09-25T23:46:34.572Z,8.90
2018-09-25T23:50:42.708Z,9.00
2018-09-25T23:53:54.234Z,9.00
2018-09-25T23:57:01.904Z,8.90
